createdAt,value
2017-08-11T00:00:43.646Z,22.94
2017-08-11T00:01:45.542Z,22.77
2017-08-11T00:02:47.436Z,22.67
2017-08-11T00:03:49.256Z,22.65
2017-08-11T00:04:51.078Z,22.58
2017-08-11T00:05:52.979Z,22.55
2017-08-11T00:06:54.866Z,22.49
2017-08-11T00:07:56.755Z,22.46
2017-08-11T00:09:10.916Z,22.47
2017-08-11T00:10:12.817Z,22.47
2017-08-11T00:11:14.713Z,22.49
2017-08-11T00:12:16.611Z,22.47
2017-08-11T00:13:18.436Z,22.47
2017-08-11T00:14:20.260Z,22.43
2017-08-11T00:15:22.146Z,22.42
2017-08-11T00:16:24.045Z,22.51
2017-08-11T00:17:25.935Z,22.43
2017-08-11T00:18:40.095Z,22.60
2017-08-11T00:19:41.997Z,22.58
2017-08-11T00:20:43.881Z,22.58
2017-08-11T00:21:45.770Z,22.64
2017-08-11T00:22:47.594Z,22.75
2017-08-11T00:23:49.416Z,22.86
2017-08-11T00:24:51.300Z,22.91
2017-08-11T00:25:53.186Z,22.98
2017-08-11T00:26:55.074Z,23.05
2017-08-11T00:28:09.249Z,23.19
2017-08-11T00:29:11.134Z,23.10
2017-08-11T00:30:13.023Z,23.17
2017-08-11T00:31:14.924Z,23.16
2017-08-11T00:32:16.745Z,23.17
2017-08-11T00:33:18.568Z,23.25
2017-08-11T00:34:20.465Z,23.22
2017-08-11T00:35:22.363Z,23.20
2017-08-11T00:36:24.250Z,23.19
2017-08-11T00:37:38.421Z,23.25
2017-08-11T00:38:40.322Z,23.17
2017-08-11T00:39:42.218Z,23.20
2017-08-11T00:40:44.116Z,23.20
2017-08-11T00:41:45.943Z,23.22
2017-08-11T00:42:47.777Z,23.23
2017-08-11T00:43:49.676Z,23.25
2017-08-11T00:44:51.554Z,23.27
2017-08-11T00:45:53.445Z,23.27
2017-08-11T00:47:07.606Z,23.28
2017-08-11T00:48:09.507Z,23.28
2017-08-11T00:49:11.401Z,23.32
2017-08-11T00:50:13.288Z,23.25
2017-08-11T00:51:15.113Z,23.22
2017-08-11T00:52:16.939Z,23.17
2017-08-11T00:53:18.825Z,23.19
2017-08-11T00:54:20.714Z,23.19
2017-08-11T00:55:22.616Z,23.12
2017-08-11T00:56:36.776Z,23.15
2017-08-11T00:57:38.694Z,23.16
2017-08-11T00:58:40.566Z,23.15
2017-08-11T00:59:42.454Z,23.19
2017-08-11T01:00:44.289Z,23.10
2017-08-11T01:01:46.116Z,23.16
2017-08-11T01:02:48.002Z,23.13
2017-08-11T01:03:49.890Z,23.07
2017-08-11T01:04:51.778Z,23.12
2017-08-11T01:06:05.939Z,23.10
2017-08-11T01:07:07.830Z,23.07
2017-08-11T01:08:09.725Z,23.22
2017-08-11T01:09:11.613Z,23.02
2017-08-11T01:10:13.437Z,23.04
2017-08-11T01:11:15.262Z,23.05
2017-08-11T01:12:17.147Z,23.07
2017-08-11T01:13:19.033Z,23.04
2017-08-11T01:14:20.924Z,23.12
2017-08-11T01:15:35.093Z,23.09
2017-08-11T01:16:36.982Z,22.98
2017-08-11T01:17:38.871Z,23.04
2017-08-11T01:18:40.770Z,23.02
2017-08-11T01:19:42.596Z,23.05
2017-08-11T01:20:44.432Z,23.20
2017-08-11T01:21:46.317Z,23.19
2017-08-11T01:22:48.214Z,23.09
2017-08-11T01:23:50.104Z,23.15
2017-08-11T01:25:04.270Z,23.10
2017-08-11T01:26:06.161Z,23.05
2017-08-11T01:27:08.058Z,23.10
2017-08-11T01:28:09.950Z,23.10
2017-08-11T01:29:11.774Z,23.04
2017-08-11T01:30:13.599Z,23.02
2017-08-11T01:31:15.487Z,23.05
2017-08-11T01:32:17.387Z,22.97
2017-08-11T01:33:19.276Z,22.95
2017-08-11T01:34:33.437Z,22.95
2017-08-11T01:35:35.338Z,23.00
2017-08-11T01:36:37.236Z,22.95
2017-08-11T01:37:39.132Z,22.94
2017-08-11T01:38:40.957Z,22.98
2017-08-11T01:39:42.781Z,23.01
2017-08-11T01:40:44.666Z,22.98
2017-08-11T01:41:46.563Z,23.09
2017-08-11T01:42:48.452Z,23.05
2017-08-11T01:44:02.622Z,23.05
2017-08-11T01:45:04.511Z,23.01
2017-08-11T01:46:06.405Z,23.02
2017-08-11T01:47:08.305Z,22.98
2017-08-11T01:48:11.103Z,23.04
2017-08-11T01:49:12.937Z,23.01
2017-08-11T01:50:14.845Z,22.94
2017-08-11T01:51:16.769Z,23.02
2017-08-11T01:52:18.681Z,23.00
2017-08-11T01:53:32.843Z,23.01
2017-08-11T01:54:34.731Z,22.98
2017-08-11T01:55:36.632Z,23.04
2017-08-11T01:56:38.508Z,22.97
2017-08-11T01:57:40.345Z,22.82
2017-08-11T01:58:42.169Z,22.86
2017-08-11T01:59:44.053Z,22.80
2017-08-11T02:00:45.942Z,22.85
2017-08-11T02:01:47.839Z,22.79
2017-08-11T02:03:02.009Z,22.77
2017-08-11T02:04:03.895Z,22.75
2017-08-11T02:05:05.794Z,22.61
2017-08-11T02:06:07.680Z,22.67
2017-08-11T02:07:09.506Z,22.67
2017-08-11T02:08:11.330Z,22.54
2017-08-11T02:09:13.216Z,22.60
2017-08-11T02:10:15.105Z,22.64
2017-08-11T02:11:16.991Z,22.61
2017-08-11T02:12:31.151Z,22.64
2017-08-11T02:13:33.040Z,22.58
2017-08-11T02:14:34.950Z,22.58
2017-08-11T02:15:36.826Z,22.55
2017-08-11T02:16:38.649Z,22.57
2017-08-11T02:17:40.471Z,22.57
2017-08-11T02:18:42.359Z,22.46
2017-08-11T02:19:44.249Z,22.55
2017-08-11T02:20:46.135Z,22.54
2017-08-11T02:22:00.303Z,22.60
2017-08-11T02:23:02.192Z,22.54
2017-08-11T02:24:04.083Z,22.58
2017-08-11T02:25:05.970Z,22.60
2017-08-11T02:26:07.793Z,22.54
2017-08-11T02:27:09.615Z,22.54
2017-08-11T02:28:11.520Z,22.54
2017-08-11T02:29:13.420Z,22.46
2017-08-11T02:30:15.310Z,22.45
2017-08-11T02:31:29.468Z,22.43
2017-08-11T02:32:31.359Z,22.46
2017-08-11T02:33:33.249Z,22.45
2017-08-11T02:34:35.136Z,22.40
2017-08-11T02:35:36.959Z,22.51
2017-08-11T02:36:38.782Z,22.55
2017-08-11T02:37:40.673Z,22.60
2017-08-11T02:38:43.201Z,22.55
2017-08-11T02:39:45.532Z,22.65
2017-08-11T02:40:59.736Z,22.67
2017-08-11T02:42:01.634Z,22.73
2017-08-11T02:43:03.514Z,22.67
2017-08-11T02:44:05.401Z,22.73
2017-08-11T02:45:07.238Z,22.73
2017-08-11T02:46:09.057Z,22.68
2017-08-11T02:47:10.955Z,22.76
2017-08-11T02:48:12.848Z,22.70
2017-08-11T02:49:14.735Z,22.72
2017-08-11T02:50:28.904Z,22.73
2017-08-11T02:51:30.788Z,22.77
2017-08-11T02:52:32.679Z,22.82
2017-08-11T02:53:34.566Z,22.77
2017-08-11T02:54:36.392Z,22.90
2017-08-11T02:55:38.211Z,22.86
2017-08-11T02:56:40.108Z,22.86
2017-08-11T02:57:41.996Z,22.85
2017-08-11T02:58:43.893Z,22.80
2017-08-11T02:59:58.053Z,22.86
2017-08-11T03:00:59.953Z,22.80
2017-08-11T03:02:01.840Z,22.82
2017-08-11T03:03:03.738Z,22.88
2017-08-11T03:04:05.572Z,22.86
2017-08-11T03:05:07.394Z,22.88
2017-08-11T03:06:09.295Z,22.77
2017-08-11T03:07:11.184Z,22.67
2017-08-11T03:08:13.073Z,22.73
2017-08-11T03:09:27.231Z,22.76
2017-08-11T03:10:29.132Z,22.68
2017-08-11T03:11:31.021Z,22.64
2017-08-11T03:12:32.912Z,22.68
2017-08-11T03:13:34.735Z,22.72
2017-08-11T03:14:36.567Z,22.75
2017-08-11T03:15:38.466Z,22.80
2017-08-11T03:16:40.364Z,22.88
2017-08-11T03:17:42.251Z,22.91
2017-08-11T03:18:56.421Z,22.94
2017-08-11T03:19:58.311Z,22.88
2017-08-11T03:21:00.203Z,22.90
2017-08-11T03:22:02.088Z,22.86
2017-08-11T03:23:03.912Z,22.76
2017-08-11T03:24:05.746Z,22.77
2017-08-11T03:25:07.630Z,22.80
2017-08-11T03:26:09.520Z,22.90
2017-08-11T03:27:11.409Z,22.82
2017-08-11T03:28:25.570Z,22.83
2017-08-11T03:29:27.458Z,22.70
2017-08-11T03:30:29.351Z,22.68
2017-08-11T03:31:31.239Z,22.76
2017-08-11T03:32:33.074Z,22.77
2017-08-11T03:33:34.905Z,22.77
2017-08-11T03:34:36.792Z,22.82
2017-08-11T03:35:38.691Z,22.75
2017-08-11T03:36:40.580Z,22.68
2017-08-11T03:37:54.739Z,22.58
2017-08-11T03:38:56.628Z,22.40
2017-08-11T03:39:58.518Z,22.40
2017-08-11T03:41:00.417Z,22.36
2017-08-11T03:42:02.243Z,22.36
2017-08-11T03:43:04.069Z,22.46
2017-08-11T03:44:05.954Z,22.54
2017-08-11T03:45:07.872Z,22.60
2017-08-11T03:46:09.736Z,22.70
2017-08-11T03:47:23.956Z,22.75
2017-08-11T03:48:25.844Z,22.77
2017-08-11T03:49:27.745Z,22.73
2017-08-11T03:50:29.641Z,22.72
2017-08-11T03:51:31.467Z,22.88
2017-08-11T03:52:33.290Z,22.85
2017-08-11T03:53:35.180Z,22.94
2017-08-11T03:54:37.084Z,22.98
2017-08-11T03:55:38.972Z,22.90
2017-08-11T03:56:53.135Z,22.94
2017-08-11T03:57:55.022Z,22.92
2017-08-11T03:58:56.917Z,22.85
2017-08-11T03:59:58.805Z,22.83
2017-08-11T04:01:00.633Z,22.61
2017-08-11T04:02:02.453Z,22.55
2017-08-11T04:03:04.345Z,22.45
2017-08-11T04:04:06.235Z,22.58
2017-08-11T04:05:08.123Z,22.55
2017-08-11T04:06:22.283Z,22.67
2017-08-11T04:07:24.176Z,22.65
2017-08-11T04:08:26.068Z,22.75
2017-08-11T04:09:27.978Z,22.76
2017-08-11T04:10:29.806Z,22.76
2017-08-11T04:11:31.643Z,22.73
2017-08-11T04:12:33.547Z,22.82
2017-08-11T04:13:35.451Z,22.83
2017-08-11T04:14:37.341Z,22.90
2017-08-11T04:15:51.502Z,23.02
2017-08-11T04:16:53.390Z,23.01
2017-08-11T04:17:55.291Z,22.94
2017-08-11T04:18:57.182Z,23.00
2017-08-11T04:19:59.013Z,23.01
2017-08-11T04:21:00.837Z,22.91
2017-08-11T04:22:02.737Z,22.73
2017-08-11T04:23:04.618Z,22.75
2017-08-11T04:24:06.508Z,22.73
2017-08-11T04:25:20.670Z,22.82
2017-08-11T04:26:22.561Z,22.79
2017-08-11T04:27:24.455Z,22.75
2017-08-11T04:28:26.346Z,22.72
2017-08-11T04:29:28.183Z,22.70
2017-08-11T04:30:30.009Z,22.76
2017-08-11T04:31:31.898Z,22.76
2017-08-11T04:32:33.802Z,22.83
2017-08-11T04:33:35.693Z,22.86
2017-08-11T04:34:49.905Z,22.90
2017-08-11T04:35:51.799Z,22.79
2017-08-11T04:36:53.687Z,22.72
2017-08-11T04:37:55.578Z,22.90
2017-08-11T04:38:57.405Z,22.88
2017-08-11T04:39:59.236Z,22.95
2017-08-11T04:41:01.123Z,23.01
2017-08-11T04:42:03.019Z,22.94
2017-08-11T04:43:04.911Z,22.91
2017-08-11T04:44:19.086Z,23.02
2017-08-11T04:45:20.977Z,23.00
2017-08-11T04:46:22.867Z,23.07
2017-08-11T04:47:24.761Z,23.00
2017-08-11T04:48:26.599Z,23.01
2017-08-11T04:49:28.425Z,23.01
2017-08-11T04:50:30.317Z,22.92
2017-08-11T04:51:32.207Z,22.85
2017-08-11T04:52:34.097Z,22.90
2017-08-11T04:53:48.274Z,22.83
2017-08-11T04:54:50.166Z,22.77
2017-08-11T04:55:52.057Z,22.86
2017-08-11T04:56:53.948Z,22.75
2017-08-11T04:57:55.788Z,22.73
2017-08-11T04:58:57.608Z,22.64
2017-08-11T04:59:59.496Z,22.73
2017-08-11T05:01:01.390Z,22.76
2017-08-11T05:02:03.282Z,22.77
2017-08-11T05:03:17.446Z,22.75
2017-08-11T05:04:19.336Z,22.86
2017-08-11T05:05:21.239Z,22.85
2017-08-11T05:06:23.139Z,22.94
2017-08-11T05:07:24.967Z,22.94
2017-08-11T05:08:26.793Z,22.94
2017-08-11T05:09:28.695Z,22.98
2017-08-11T05:10:30.590Z,22.98
2017-08-11T05:11:32.483Z,22.97
2017-08-11T05:12:46.647Z,22.98
2017-08-11T05:13:48.541Z,22.97
2017-08-11T05:14:50.446Z,23.00
2017-08-11T05:15:52.338Z,22.95
2017-08-11T05:16:54.168Z,22.95
2017-08-11T05:17:55.994Z,23.00
2017-08-11T05:18:57.886Z,23.01
2017-08-11T05:19:59.779Z,23.04
2017-08-11T05:21:01.683Z,23.04
2017-08-11T05:22:15.899Z,23.04
2017-08-11T05:23:17.798Z,23.16
2017-08-11T05:24:19.699Z,23.09
2017-08-11T05:25:21.600Z,23.05
2017-08-11T05:26:23.440Z,23.07
2017-08-11T05:27:25.265Z,23.09
2017-08-11T05:28:27.154Z,23.16
2017-08-11T05:29:29.057Z,23.05
2017-08-11T05:30:30.948Z,23.16
2017-08-11T05:31:45.112Z,23.10
2017-08-11T05:32:47.007Z,23.02
2017-08-11T05:33:48.898Z,23.13
2017-08-11T05:34:50.790Z,23.05
2017-08-11T05:35:52.620Z,23.02
2017-08-11T05:36:54.457Z,22.88
2017-08-11T05:37:56.350Z,22.82
2017-08-11T05:38:58.244Z,22.72
2017-08-11T05:40:00.138Z,22.80
2017-08-11T05:41:14.304Z,22.70
2017-08-11T05:42:16.197Z,22.77
2017-08-11T05:43:18.108Z,22.77
2017-08-11T05:44:20.011Z,22.73
2017-08-11T05:45:21.841Z,22.75
2017-08-11T05:46:23.662Z,22.62
2017-08-11T05:47:25.553Z,22.57
2017-08-11T05:48:27.448Z,22.52
2017-08-11T05:49:29.343Z,22.47
2017-08-11T05:50:43.507Z,22.55
2017-08-11T05:51:45.400Z,22.68
2017-08-11T05:52:47.294Z,22.79
2017-08-11T05:53:49.197Z,22.85
2017-08-11T05:54:51.027Z,22.86
2017-08-11T05:55:52.857Z,23.09
2017-08-11T05:56:54.750Z,23.07
2017-08-11T05:57:56.644Z,23.23
2017-08-11T05:58:58.549Z,23.23
2017-08-11T06:00:12.724Z,23.35
2017-08-11T06:01:14.613Z,23.33
2017-08-11T06:02:16.505Z,23.54
2017-08-11T06:03:18.402Z,23.53
2017-08-11T06:04:20.228Z,23.55
2017-08-11T06:05:22.056Z,23.63
2017-08-11T06:06:23.949Z,23.65
2017-08-11T06:07:25.844Z,23.65
2017-08-11T06:08:27.702Z,23.78
2017-08-11T06:09:41.865Z,23.98
2017-08-11T06:10:43.756Z,24.06
2017-08-11T06:11:45.660Z,24.06
2017-08-11T06:12:47.554Z,24.18
2017-08-11T06:13:49.382Z,24.10
2017-08-11T06:14:51.249Z,24.08
2017-08-11T06:15:53.140Z,24.10
2017-08-11T06:16:55.030Z,24.09
2017-08-11T06:17:56.922Z,24.15
2017-08-11T06:19:11.082Z,24.15
2017-08-11T06:20:13.000Z,24.13
2017-08-11T06:21:14.912Z,24.18
2017-08-11T06:22:16.804Z,24.10
2017-08-11T06:23:18.633Z,24.20
2017-08-11T06:24:20.472Z,24.12
2017-08-11T06:25:22.364Z,24.12
2017-08-11T06:26:24.275Z,24.06
2017-08-11T06:27:26.158Z,24.18
2017-08-11T06:28:40.326Z,24.13
2017-08-11T06:29:42.216Z,24.12
2017-08-11T06:30:44.112Z,24.13
2017-08-11T06:31:46.001Z,24.16
2017-08-11T06:32:47.844Z,24.06
2017-08-11T06:33:49.693Z,24.03
2017-08-11T06:34:51.583Z,23.95
2017-08-11T06:35:53.476Z,23.93
2017-08-11T06:36:55.364Z,23.97
2017-08-11T06:38:09.541Z,23.97
2017-08-11T06:39:11.432Z,24.00
2017-08-11T06:40:13.324Z,24.00
2017-08-11T06:41:15.218Z,24.18
2017-08-11T06:42:17.047Z,24.03
2017-08-11T06:43:18.876Z,24.18
2017-08-11T06:44:20.763Z,24.21
2017-08-11T06:45:22.657Z,24.21
2017-08-11T06:46:24.545Z,24.31
2017-08-11T06:47:38.719Z,24.24
2017-08-11T06:48:40.611Z,24.16
2017-08-11T06:49:42.502Z,24.22
2017-08-11T06:50:44.392Z,24.28
2017-08-11T06:51:46.221Z,24.15
2017-08-11T06:52:48.054Z,24.13
2017-08-11T06:53:50.400Z,24.21
2017-08-11T06:54:52.267Z,24.22
2017-08-11T06:55:54.155Z,24.18
2017-08-11T06:57:08.325Z,24.16
2017-08-11T06:58:10.227Z,24.00
2017-08-11T06:59:12.111Z,23.90
2017-08-11T07:00:14.002Z,23.84
2017-08-11T07:01:15.869Z,23.90
2017-08-11T07:02:17.680Z,23.84
2017-08-11T07:03:19.581Z,23.75
2017-08-11T07:04:21.476Z,23.60
2017-08-11T07:05:23.379Z,23.28
2017-08-11T07:06:37.541Z,23.16
2017-08-11T07:07:39.456Z,23.15
2017-08-11T07:08:41.341Z,23.31
2017-08-11T07:09:43.230Z,23.60
2017-08-11T07:10:45.065Z,23.61
2017-08-11T07:11:46.899Z,23.79
2017-08-11T07:12:48.781Z,23.95
2017-08-11T07:13:50.686Z,24.08
2017-08-11T07:14:52.576Z,24.18
2017-08-11T07:16:06.758Z,24.15
2017-08-11T07:17:08.649Z,24.22
2017-08-11T07:18:10.542Z,24.20
2017-08-11T07:19:12.430Z,24.24
2017-08-11T07:20:14.259Z,24.21
2017-08-11T07:21:16.087Z,24.22
2017-08-11T07:22:17.981Z,24.03
2017-08-11T07:23:19.872Z,24.02
2017-08-11T07:24:21.960Z,24.00
2017-08-11T07:25:36.125Z,23.90
2017-08-11T07:26:38.013Z,23.76
2017-08-11T07:27:39.902Z,23.65
2017-08-11T07:28:41.808Z,23.57
2017-08-11T07:29:43.638Z,23.60
2017-08-11T07:30:45.466Z,23.51
2017-08-11T07:31:47.353Z,23.58
2017-08-11T07:32:49.244Z,23.51
2017-08-11T07:33:51.136Z,23.50
2017-08-11T07:35:05.311Z,23.48
2017-08-11T07:36:07.203Z,23.38
2017-08-11T07:37:09.095Z,23.39
2017-08-11T07:38:10.981Z,23.43
2017-08-11T07:39:12.811Z,23.46
2017-08-11T07:40:14.647Z,23.53
2017-08-11T07:41:16.536Z,23.53
2017-08-11T07:42:18.428Z,23.48
2017-08-11T07:43:20.316Z,23.43
2017-08-11T07:44:34.480Z,23.43
2017-08-11T07:45:36.368Z,23.50
2017-08-11T07:46:38.262Z,23.43
2017-08-11T07:47:40.152Z,23.38
2017-08-11T07:48:41.993Z,23.32
2017-08-11T07:49:43.820Z,23.35
2017-08-11T07:50:45.722Z,23.42
2017-08-11T07:51:47.612Z,23.48
2017-08-11T07:52:49.501Z,23.60
2017-08-11T07:54:03.668Z,23.61
2017-08-11T07:55:05.557Z,23.54
2017-08-11T07:56:07.448Z,23.23
2017-08-11T07:57:09.338Z,22.90
2017-08-11T07:58:11.170Z,22.61
2017-08-11T07:59:13.002Z,22.39
2017-08-11T08:00:14.892Z,22.51
2017-08-11T08:01:16.784Z,22.43
2017-08-11T08:02:18.672Z,22.37
2017-08-11T08:03:32.839Z,22.31
2017-08-11T08:04:34.729Z,22.30
2017-08-11T08:05:36.628Z,22.47
2017-08-11T08:06:38.540Z,22.70
2017-08-11T08:07:40.363Z,22.68
2017-08-11T08:08:42.187Z,22.88
2017-08-11T08:09:44.079Z,23.02
2017-08-11T08:10:45.968Z,23.16
2017-08-11T08:11:47.860Z,23.38
2017-08-11T08:13:02.035Z,23.35
2017-08-11T08:14:03.931Z,23.46
2017-08-11T08:15:05.816Z,23.43
2017-08-11T08:16:07.702Z,23.42
2017-08-11T08:17:09.531Z,23.43
2017-08-11T08:18:11.379Z,23.53
2017-08-11T08:19:13.250Z,23.54
2017-08-11T08:20:15.142Z,23.51
2017-08-11T08:21:17.027Z,23.51
2017-08-11T08:22:31.298Z,23.48
2017-08-11T08:23:33.254Z,23.53
2017-08-11T08:24:35.210Z,23.46
2017-08-11T08:25:37.153Z,23.47
2017-08-11T08:26:39.031Z,23.48
2017-08-11T08:27:40.892Z,23.53
2017-08-11T08:28:42.777Z,23.50
2017-08-11T08:29:44.677Z,23.48
2017-08-11T08:30:46.580Z,23.47
2017-08-11T08:32:00.744Z,23.43
2017-08-11T08:33:02.631Z,23.40
2017-08-11T08:34:04.536Z,23.38
2017-08-11T08:35:06.427Z,23.40
2017-08-11T08:36:08.262Z,23.43
2017-08-11T08:37:10.090Z,23.50
2017-08-11T08:38:12.014Z,23.50
2017-08-11T08:39:13.881Z,23.58
2017-08-11T08:40:15.782Z,23.55
2017-08-11T08:41:29.947Z,23.50
2017-08-11T08:42:31.837Z,23.48
2017-08-11T08:43:33.727Z,23.46
2017-08-11T08:44:35.627Z,23.50
2017-08-11T08:45:37.460Z,23.63
2017-08-11T08:46:39.286Z,23.50
2017-08-11T08:47:41.186Z,23.55
2017-08-11T08:48:43.072Z,23.53
2017-08-11T08:49:44.961Z,23.58
2017-08-11T08:50:59.136Z,23.47
2017-08-11T08:52:01.022Z,23.46
2017-08-11T08:53:02.915Z,23.40
2017-08-11T08:54:04.803Z,23.48
2017-08-11T08:55:06.643Z,23.39
2017-08-11T08:56:08.497Z,23.46
2017-08-11T08:57:10.371Z,23.35
2017-08-11T08:58:12.267Z,23.35
2017-08-11T08:59:14.156Z,23.35
2017-08-11T09:00:28.322Z,23.32
2017-08-11T09:01:30.217Z,23.28
2017-08-11T09:02:32.109Z,23.31
2017-08-11T09:03:33.996Z,23.16
2017-08-11T09:04:35.843Z,23.16
2017-08-11T09:05:37.670Z,23.05
2017-08-11T09:06:39.559Z,22.82
2017-08-11T09:07:41.449Z,22.55
2017-08-11T09:08:43.339Z,22.30
2017-08-11T09:09:57.513Z,21.98
2017-08-11T09:10:59.394Z,21.47
2017-08-11T09:12:01.297Z,21.19
2017-08-11T09:13:03.188Z,21.17
2017-08-11T09:14:05.019Z,20.99
2017-08-11T09:15:06.846Z,20.85
2017-08-11T09:16:08.740Z,20.89
2017-08-11T09:17:10.634Z,20.82
2017-08-11T09:18:12.525Z,20.77
2017-08-11T09:19:26.692Z,21.04
2017-08-11T09:20:28.583Z,21.16
2017-08-11T09:21:30.473Z,21.32
2017-08-11T09:22:32.374Z,21.37
2017-08-11T09:23:34.193Z,21.49
2017-08-11T09:24:36.032Z,21.54
2017-08-11T09:25:37.923Z,21.62
2017-08-11T09:26:39.816Z,21.62
2017-08-11T09:27:41.712Z,21.72
2017-08-11T09:28:55.877Z,21.99
2017-08-11T09:29:57.767Z,22.14
2017-08-11T09:30:59.659Z,22.17
2017-08-11T09:32:01.544Z,22.21
2017-08-11T09:33:03.371Z,22.27
2017-08-11T09:34:05.198Z,22.33
2017-08-11T09:35:07.107Z,22.33
2017-08-11T09:36:08.984Z,22.52
2017-08-11T09:37:10.873Z,22.68
2017-08-11T09:38:25.053Z,22.76
2017-08-11T09:39:26.948Z,22.94
2017-08-11T09:40:28.832Z,22.98
2017-08-11T09:41:30.722Z,23.05
2017-08-11T09:42:32.551Z,23.10
2017-08-11T09:43:34.378Z,23.13
2017-08-11T09:44:36.267Z,23.25
2017-08-11T09:45:38.163Z,23.28
2017-08-11T09:46:40.053Z,23.31
2017-08-11T09:47:54.229Z,23.35
2017-08-11T09:48:56.115Z,23.40
2017-08-11T09:49:58.008Z,23.16
2017-08-11T09:50:59.899Z,22.92
2017-08-11T09:52:01.733Z,22.58
2017-08-11T09:53:03.560Z,22.45
2017-08-11T09:54:05.413Z,22.33
2017-08-11T09:55:07.245Z,22.24
2017-08-11T09:56:09.101Z,22.27
2017-08-11T09:57:23.268Z,22.36
2017-08-11T09:58:25.164Z,22.36
2017-08-11T09:59:27.054Z,22.42
2017-08-11T10:00:28.945Z,22.51
2017-08-11T10:01:30.776Z,22.55
2017-08-11T10:02:32.607Z,22.60
2017-08-11T10:03:34.494Z,22.80
2017-08-11T10:04:36.385Z,22.79
2017-08-11T10:05:38.272Z,22.83
2017-08-11T10:06:52.449Z,23.07
2017-08-11T10:07:54.353Z,23.19
2017-08-11T10:08:56.238Z,23.33
2017-08-11T10:09:58.136Z,23.42
2017-08-11T10:10:59.963Z,23.57
2017-08-11T10:12:01.790Z,23.61
2017-08-11T10:13:03.682Z,23.63
2017-08-11T10:14:05.572Z,23.87
2017-08-11T10:15:07.467Z,23.91
2017-08-11T10:16:21.631Z,24.03
2017-08-11T10:17:23.522Z,24.09
2017-08-11T10:18:25.414Z,24.15
2017-08-11T10:19:27.307Z,24.21
2017-08-11T10:20:29.148Z,24.28
2017-08-11T10:21:30.978Z,24.37
2017-08-11T10:22:32.868Z,24.43
2017-08-11T10:23:34.759Z,24.42
2017-08-11T10:24:36.648Z,24.53
2017-08-11T10:25:50.816Z,24.50
2017-08-11T10:26:52.707Z,24.43
2017-08-11T10:27:54.610Z,24.37
2017-08-11T10:28:56.503Z,24.34
2017-08-11T10:29:58.334Z,24.22
2017-08-11T10:31:00.162Z,24.13
2017-08-11T10:32:02.052Z,23.98
2017-08-11T10:33:03.943Z,23.70
2017-08-11T10:34:05.832Z,23.60
2017-08-11T10:35:20.007Z,23.58
2017-08-11T10:36:21.894Z,23.55
2017-08-11T10:37:23.787Z,23.50
2017-08-11T10:38:25.674Z,23.53
2017-08-11T10:39:27.503Z,23.39
2017-08-11T10:40:29.330Z,23.40
2017-08-11T10:41:31.216Z,23.42
2017-08-11T10:42:33.108Z,23.33
2017-08-11T10:43:34.958Z,23.35
2017-08-11T10:44:49.132Z,23.27
2017-08-11T10:45:51.022Z,23.10
2017-08-11T10:46:52.923Z,23.07
2017-08-11T10:47:54.810Z,22.95
2017-08-11T10:48:56.640Z,22.77
2017-08-11T10:49:58.481Z,22.79
2017-08-11T10:51:00.366Z,22.77
2017-08-11T10:52:02.260Z,22.79
2017-08-11T10:53:04.149Z,22.91
2017-08-11T10:54:18.324Z,22.70
2017-08-11T10:55:20.229Z,22.82
2017-08-11T10:56:22.111Z,22.92
2017-08-11T10:57:24.003Z,23.02
2017-08-11T10:58:25.830Z,23.15
2017-08-11T10:59:27.669Z,23.28
2017-08-11T11:00:29.554Z,23.35
2017-08-11T11:01:31.445Z,23.39
2017-08-11T11:02:33.612Z,23.47
2017-08-11T11:03:47.753Z,23.57
2017-08-11T11:04:49.645Z,23.54
2017-08-11T11:05:51.538Z,23.66
2017-08-11T11:06:53.441Z,23.75
2017-08-11T11:07:55.262Z,23.83
2017-08-11T11:08:57.101Z,23.98
2017-08-11T11:09:58.990Z,24.02
2017-08-11T11:11:00.882Z,24.18
2017-08-11T11:12:02.779Z,24.27
2017-08-11T11:13:16.947Z,24.25
2017-08-11T11:14:18.836Z,24.27
2017-08-11T11:15:20.728Z,24.35
2017-08-11T11:16:22.616Z,24.43
2017-08-11T11:17:24.460Z,24.57
2017-08-11T11:18:26.295Z,24.53
2017-08-11T11:19:28.178Z,24.67
2017-08-11T11:20:30.072Z,24.77
2017-08-11T11:21:31.965Z,24.78
2017-08-11T11:22:46.136Z,24.85
2017-08-11T11:23:48.029Z,24.83
2017-08-11T11:24:49.921Z,24.68
2017-08-11T11:25:51.809Z,24.46
2017-08-11T11:26:53.660Z,24.43
2017-08-11T11:27:55.490Z,24.40
2017-08-11T11:28:57.396Z,24.55
2017-08-11T11:29:59.279Z,24.68
2017-08-11T11:31:01.184Z,24.87
2017-08-11T11:32:15.354Z,25.18
2017-08-11T11:33:17.255Z,25.45
2017-08-11T11:34:19.150Z,25.62
2017-08-11T11:35:21.054Z,25.92
2017-08-11T11:36:22.879Z,26.18
2017-08-11T11:37:24.727Z,26.33
2017-08-11T11:38:26.629Z,26.43
2017-08-11T11:39:28.523Z,26.45
2017-08-11T11:40:30.417Z,26.45
2017-08-11T11:41:44.584Z,26.52
2017-08-11T11:42:46.477Z,26.63
2017-08-11T11:43:48.367Z,26.51
2017-08-11T11:44:50.265Z,26.51
2017-08-11T11:45:52.112Z,26.47
2017-08-11T11:46:53.937Z,26.36
2017-08-11T11:47:55.837Z,26.25
2017-08-11T11:48:57.728Z,26.28
2017-08-11T11:49:59.620Z,26.33
2017-08-11T11:51:13.799Z,26.29
2017-08-11T11:52:15.691Z,26.30
2017-08-11T11:53:17.585Z,26.23
2017-08-11T11:54:19.476Z,26.15
2017-08-11T11:55:21.311Z,26.05
2017-08-11T11:56:23.158Z,25.92
2017-08-11T11:57:25.047Z,25.65
2017-08-11T11:58:26.938Z,25.62
2017-08-11T11:59:28.828Z,25.43
2017-08-11T12:00:43.010Z,25.32
2017-08-11T12:01:44.910Z,25.32
2017-08-11T12:02:46.794Z,25.20
2017-08-11T12:03:48.693Z,25.21
2017-08-11T12:04:50.525Z,25.13
2017-08-11T12:05:52.370Z,25.08
2017-08-11T12:06:54.259Z,24.96
2017-08-11T12:07:56.150Z,24.83
2017-08-11T12:08:58.054Z,24.73
2017-08-11T12:10:12.213Z,24.62
2017-08-11T12:11:14.103Z,24.42
2017-08-11T12:12:16.009Z,24.32
2017-08-11T12:13:17.888Z,24.13
2017-08-11T12:14:19.716Z,24.00
2017-08-11T12:15:21.557Z,23.84
2017-08-11T12:16:23.460Z,23.70
2017-08-11T12:17:25.316Z,23.75
2017-08-11T12:18:27.158Z,23.75
2017-08-11T12:19:41.326Z,23.94
2017-08-11T12:20:43.218Z,24.12
2017-08-11T12:21:45.112Z,24.22
2017-08-11T12:22:47.007Z,24.34
2017-08-11T12:23:48.841Z,24.49
2017-08-11T12:24:50.671Z,24.57
2017-08-11T12:25:52.563Z,24.83
2017-08-11T12:26:54.456Z,24.84
2017-08-11T12:27:56.348Z,24.83
2017-08-11T12:29:10.513Z,24.83
2017-08-11T12:30:12.407Z,24.85
2017-08-11T12:31:14.298Z,24.68
2017-08-11T12:32:16.189Z,24.55
2017-08-11T12:33:18.036Z,24.52
2017-08-11T12:34:19.863Z,24.32
2017-08-11T12:35:21.760Z,24.21
2017-08-11T12:36:23.664Z,24.10
2017-08-11T12:37:25.556Z,24.03
2017-08-11T12:38:39.723Z,24.12
2017-08-11T12:39:41.615Z,24.24
2017-08-11T12:40:43.507Z,24.37
2017-08-11T12:41:45.410Z,24.40
2017-08-11T12:42:47.241Z,24.50
2017-08-11T12:43:49.073Z,24.67
2017-08-11T12:44:50.961Z,24.83
2017-08-11T12:45:52.855Z,24.76
2017-08-11T12:46:54.743Z,24.90
2017-08-11T12:48:08.921Z,24.88
2017-08-11T12:49:10.811Z,24.83
2017-08-11T12:50:12.703Z,24.83
2017-08-11T12:51:14.590Z,24.80
2017-08-11T12:52:16.423Z,24.69
2017-08-11T12:53:18.252Z,24.57
2017-08-11T12:54:20.144Z,24.46
2017-08-11T12:55:22.036Z,24.27
2017-08-11T12:56:23.937Z,24.30
2017-08-11T12:57:38.097Z,24.32
2017-08-11T12:58:39.986Z,24.30
2017-08-11T12:59:41.879Z,24.34
2017-08-11T13:00:43.772Z,24.08
2017-08-11T13:01:45.620Z,23.90
2017-08-11T13:02:47.445Z,23.79
2017-08-11T13:03:49.331Z,23.85
2017-08-11T13:04:51.224Z,23.78
2017-08-11T13:05:53.119Z,23.83
2017-08-11T13:07:07.282Z,23.80
2017-08-11T13:08:09.170Z,23.88
2017-08-11T13:09:11.069Z,23.79
2017-08-11T13:10:12.961Z,23.84
2017-08-11T13:11:14.790Z,23.85
2017-08-11T13:12:16.630Z,23.84
2017-08-11T13:13:18.520Z,23.75
2017-08-11T13:14:20.410Z,23.73
2017-08-11T13:15:22.303Z,23.70
2017-08-11T13:16:36.480Z,23.57
2017-08-11T13:17:38.372Z,23.53
2017-08-11T13:18:40.262Z,23.50
2017-08-11T13:19:42.152Z,23.47
2017-08-11T13:20:43.998Z,23.42
2017-08-11T13:21:45.826Z,23.40
2017-08-11T13:22:47.717Z,23.40
2017-08-11T13:23:49.606Z,23.35
2017-08-11T13:24:51.497Z,23.33
2017-08-11T13:26:05.675Z,23.32
2017-08-11T13:27:07.564Z,23.32
2017-08-11T13:28:09.453Z,23.39
2017-08-11T13:29:11.345Z,23.38
2017-08-11T13:30:13.173Z,23.32
2017-08-11T13:31:15.107Z,23.17
2017-08-11T13:32:16.973Z,23.09
2017-08-11T13:33:18.921Z,23.07
2017-08-11T13:34:20.841Z,23.10